createdAt,value
2019-03-17T00:01:39.193Z,16.31
2019-03-17T00:04:07.050Z,16.38
2019-03-17T00:06:34.910Z,16.24
2019-03-17T00:09:02.711Z,16.25
2019-03-17T00:11:30.591Z,16.36
2019-03-17T00:13:58.420Z,16.16
2019-03-17T00:16:26.288Z,16.17
2019-03-17T00:18:54.042Z,16.25
2019-03-17T00:21:21.840Z,16.18
2019-03-17T00:23:49.612Z,16.21
2019-03-17T00:26:17.444Z,16.16
2019-03-17T00:28:45.200Z,16.19
2019-03-17T00:31:23.354Z,16.18
2019-03-17T00:33:42.714Z,16.33
2019-03-17T00:36:10.504Z,16.25
2019-03-17T00:38:38.296Z,16.14
2019-03-17T00:41:06.098Z,16.12
2019-03-17T00:43:33.874Z,16.12
2019-03-17T00:46:01.658Z,16.30
2019-03-17T00:48:29.482Z,16.21
2019-03-17T00:50:57.265Z,16.30
2019-03-17T00:53:25.021Z,16.28
2019-03-17T00:55:52.852Z,16.36
2019-03-17T00:58:20.802Z,16.34
2019-03-17T01:00:48.668Z,16.41
2019-03-17T01:03:16.441Z,16.09
2019-03-17T01:05:44.395Z,16.17
2019-03-17T01:08:12.134Z,16.21
2019-03-17T01:10:39.900Z,16.11
2019-03-17T01:13:07.670Z,16.12
2019-03-17T01:15:35.466Z,16.12
2019-03-17T01:18:03.340Z,16.15
2019-03-17T01:20:31.174Z,16.31
2019-03-17T01:22:59.034Z,16.27
2019-03-17T01:25:26.798Z,16.34
2019-03-17T01:27:54.545Z,16.11
2019-03-17T01:30:22.323Z,16.13
2019-03-17T01:32:50.093Z,16.36
2019-03-17T01:35:17.879Z,16.16
2019-03-17T01:37:45.648Z,16.07
2019-03-17T01:40:13.421Z,16.16
2019-03-17T01:42:41.244Z,16.24
2019-03-17T01:45:09.042Z,16.32
2019-03-17T01:47:36.894Z,16.25
2019-03-17T01:50:04.707Z,16.11
2019-03-17T01:52:32.630Z,16.08
2019-03-17T01:55:00.435Z,16.19
2019-03-17T01:57:28.198Z,16.06
2019-03-17T01:59:56.053Z,16.23
2019-03-17T02:02:23.909Z,16.19
2019-03-17T02:04:54.871Z,16.10
2019-03-17T02:07:22.691Z,16.06
2019-03-17T02:09:50.450Z,15.99
2019-03-17T02:12:18.911Z,16.27
2019-03-17T02:14:46.689Z,16.40
2019-03-17T02:17:14.433Z,16.24
2019-03-17T02:19:42.194Z,15.98
2019-03-17T02:22:09.961Z,15.95
2019-03-17T02:24:37.728Z,15.95
2019-03-17T02:27:05.502Z,16.12
2019-03-17T02:29:33.274Z,16.03
2019-03-17T02:32:01.022Z,15.99
2019-03-17T02:34:29.233Z,16.08
2019-03-17T02:36:57.027Z,16.00
2019-03-17T02:39:26.364Z,16.07
2019-03-17T02:41:54.418Z,16.07
2019-03-17T02:44:22.221Z,16.05
2019-03-17T02:46:50.072Z,16.01
2019-03-17T02:49:18.029Z,15.95
2019-03-17T02:51:45.877Z,16.08
2019-03-17T02:54:13.705Z,15.98
2019-03-17T02:56:41.458Z,15.94
2019-03-17T02:59:09.422Z,15.96
2019-03-17T03:01:37.546Z,15.94
2019-03-17T03:04:05.418Z,16.01
2019-03-17T03:06:33.244Z,16.04
2019-03-17T03:09:01.044Z,15.86
2019-03-17T03:11:29.025Z,15.93
2019-03-17T03:13:56.895Z,16.21
2019-03-17T03:16:24.667Z,16.14
2019-03-17T03:18:52.411Z,16.02
2019-03-17T03:21:20.290Z,15.95
2019-03-17T03:23:48.110Z,15.99
2019-03-17T03:26:15.854Z,15.99
2019-03-17T03:28:43.614Z,16.08
2019-03-17T03:31:11.395Z,16.06
2019-03-17T03:33:39.346Z,15.96
2019-03-17T03:36:11.312Z,16.11
2019-03-17T03:38:36.686Z,16.29
2019-03-17T03:41:04.488Z,16.33
2019-03-17T03:43:32.317Z,16.10
2019-03-17T03:46:00.080Z,16.19
2019-03-17T03:48:27.846Z,16.04
2019-03-17T03:50:55.768Z,15.98
2019-03-17T03:53:23.559Z,16.11
2019-03-17T03:55:51.320Z,16.12
2019-03-17T03:58:19.071Z,15.94
2019-03-17T04:00:46.851Z,15.91
2019-03-17T04:03:14.632Z,16.15
2019-03-17T04:05:42.474Z,16.06
2019-03-17T04:08:10.242Z,16.17
2019-03-17T04:10:38.079Z,16.13
2019-03-17T04:13:06.159Z,15.96
2019-03-17T04:15:33.982Z,16.04
2019-03-17T04:18:01.756Z,16.12
2019-03-17T04:20:29.598Z,16.07
2019-03-17T04:22:59.044Z,15.94
2019-03-17T04:25:26.823Z,16.07
2019-03-17T04:27:54.578Z,16.05
2019-03-17T04:30:22.352Z,16.09
2019-03-17T04:32:50.146Z,16.04
2019-03-17T04:35:17.894Z,15.93
2019-03-17T04:37:45.666Z,15.95
2019-03-17T04:40:13.473Z,16.05
2019-03-17T04:42:41.241Z,15.85
2019-03-17T04:45:09.017Z,16.08
2019-03-17T04:47:36.778Z,15.99
2019-03-17T04:50:04.624Z,15.90
2019-03-17T04:52:32.579Z,15.96
2019-03-17T04:55:00.395Z,15.98
2019-03-17T04:57:28.195Z,16.09
2019-03-17T04:59:56.006Z,16.05
2019-03-17T05:02:24.106Z,16.12
2019-03-17T05:04:51.898Z,16.06
2019-03-17T05:07:19.743Z,15.98
2019-03-17T05:09:47.506Z,16.03
2019-03-17T05:12:15.546Z,16.06
2019-03-17T05:14:43.328Z,16.09
2019-03-17T05:17:11.175Z,16.08
2019-03-17T05:19:38.998Z,16.11
2019-03-17T05:22:07.487Z,16.30
2019-03-17T05:24:35.305Z,16.00
2019-03-17T05:27:03.161Z,16.08
2019-03-17T05:29:30.931Z,15.98
2019-03-17T05:31:58.677Z,16.06
2019-03-17T05:34:26.519Z,15.99
2019-03-17T05:37:05.283Z,16.02
2019-03-17T05:39:23.885Z,15.96
2019-03-17T05:41:51.778Z,16.06
2019-03-17T05:44:19.609Z,16.16
2019-03-17T05:46:47.392Z,16.06
2019-03-17T05:49:15.164Z,15.96
2019-03-17T05:51:43.016Z,16.05
2019-03-17T05:54:10.865Z,15.96
2019-03-17T05:56:39.294Z,16.03
2019-03-17T05:59:07.096Z,16.02
2019-03-17T06:01:35.202Z,15.96
2019-03-17T06:04:02.970Z,15.96
2019-03-17T06:06:30.772Z,16.00
2019-03-17T06:08:58.549Z,15.96
2019-03-17T06:11:26.339Z,15.88
2019-03-17T06:13:56.437Z,15.94
2019-03-17T06:16:24.249Z,15.92
2019-03-17T06:18:52.118Z,15.99
2019-03-17T06:21:20.008Z,16.00
2019-03-17T06:23:47.962Z,15.98
2019-03-17T06:26:15.774Z,15.96
2019-03-17T06:28:43.568Z,15.90
2019-03-17T06:31:11.328Z,15.66
2019-03-17T06:33:39.069Z,15.85
2019-03-17T06:36:06.913Z,15.91
2019-03-17T06:38:34.709Z,15.72
2019-03-17T06:41:04.334Z,15.97
2019-03-17T06:43:31.965Z,15.88
2019-03-17T06:45:59.708Z,15.97
2019-03-17T06:48:27.449Z,15.97
2019-03-17T06:50:55.192Z,15.89
2019-03-17T06:53:22.985Z,16.05
2019-03-17T06:55:50.796Z,16.05
2019-03-17T06:58:18.547Z,16.93
2019-03-17T07:00:46.289Z,17.19
2019-03-17T07:03:14.028Z,17.08
2019-03-17T07:05:41.787Z,17.59
2019-03-17T07:08:09.656Z,17.09
2019-03-17T07:10:37.412Z,16.83
2019-03-17T07:13:05.155Z,16.21
2019-03-17T07:15:32.945Z,16.25
2019-03-17T07:18:00.801Z,17.54
2019-03-17T07:20:28.561Z,17.58
2019-03-17T07:22:56.345Z,16.43
2019-03-17T07:25:24.086Z,16.78
2019-03-17T07:27:51.842Z,16.40
2019-03-17T07:30:19.577Z,16.36
2019-03-17T07:32:47.416Z,16.19
2019-03-17T07:35:15.235Z,16.30
2019-03-17T07:37:55.844Z,16.86
2019-03-17T07:40:12.524Z,17.84
2019-03-17T07:42:40.280Z,16.95
2019-03-17T07:45:08.048Z,17.17
2019-03-17T07:47:35.887Z,16.91
2019-03-17T07:50:04.136Z,16.93
2019-03-17T07:52:31.890Z,16.29
2019-03-17T07:54:59.631Z,16.23
2019-03-17T07:57:27.364Z,16.23
2019-03-17T07:59:55.125Z,16.49
2019-03-17T08:02:22.945Z,16.72
2019-03-17T08:04:50.806Z,16.34
2019-03-17T08:07:19.501Z,17.04
2019-03-17T08:09:47.409Z,16.84
2019-03-17T08:12:15.190Z,16.48
2019-03-17T08:14:43.003Z,16.36
2019-03-17T08:17:10.750Z,16.47
2019-03-17T08:19:38.531Z,16.26
2019-03-17T08:22:06.285Z,16.37
2019-03-17T08:24:34.036Z,16.48
2019-03-17T08:27:01.785Z,16.37
2019-03-17T08:29:29.598Z,16.39
2019-03-17T08:31:57.459Z,16.39
2019-03-17T08:34:25.221Z,16.39
2019-03-17T08:36:52.989Z,16.53
2019-03-17T08:39:20.841Z,16.47
2019-03-17T08:41:48.620Z,16.42
2019-03-17T08:44:16.484Z,16.46
2019-03-17T08:46:44.294Z,16.47
2019-03-17T08:49:12.033Z,16.70
2019-03-17T08:51:39.795Z,16.55
2019-03-17T08:54:07.574Z,16.63
2019-03-17T08:56:35.412Z,16.56
2019-03-17T08:59:03.252Z,16.68
2019-03-17T09:01:31.150Z,16.65
2019-03-17T09:03:58.945Z,16.60
2019-03-17T09:06:26.780Z,16.67
2019-03-17T09:08:54.690Z,16.67
2019-03-17T09:11:22.534Z,16.67
2019-03-17T09:13:50.325Z,16.64
2019-03-17T09:16:18.320Z,16.67
2019-03-17T09:18:46.084Z,16.73
2019-03-17T09:21:13.855Z,16.64
2019-03-17T09:23:42.816Z,16.65
2019-03-17T09:26:10.757Z,16.97
2019-03-17T09:28:38.503Z,16.85
2019-03-17T09:31:07.563Z,16.80
2019-03-17T09:33:35.550Z,17.21
2019-03-17T09:36:03.564Z,17.13
2019-03-17T09:38:31.790Z,17.06
2019-03-17T09:40:59.692Z,17.03
2019-03-17T09:43:27.564Z,17.18
2019-03-17T09:45:55.401Z,17.08
2019-03-17T09:48:23.245Z,16.88
2019-03-17T09:50:51.083Z,17.44
2019-03-17T09:53:20.217Z,17.13
2019-03-17T09:55:48.317Z,16.89
2019-03-17T09:58:16.227Z,17.05
2019-03-17T10:00:44.245Z,17.00
2019-03-17T10:03:11.983Z,16.84
2019-03-17T10:05:39.767Z,16.87
2019-03-17T10:08:07.770Z,16.88
2019-03-17T10:10:35.555Z,16.84
2019-03-17T10:13:03.299Z,17.10
2019-03-17T10:15:31.176Z,17.33
2019-03-17T10:17:59.129Z,17.12
2019-03-17T10:20:27.381Z,17.22
2019-03-17T10:22:55.156Z,17.50
2019-03-17T10:28:45.269Z,16.87
2019-03-17T10:31:13.202Z,16.97
2019-03-17T10:33:41.049Z,16.72
2019-03-17T10:36:08.903Z,16.95
2019-03-17T10:38:36.759Z,16.89
2019-03-17T10:41:04.628Z,17.05
2019-03-17T10:43:32.385Z,17.14
2019-03-17T10:46:00.155Z,17.16
2019-03-17T10:48:27.939Z,17.34
2019-03-17T10:50:55.713Z,17.19
2019-03-17T10:53:23.491Z,16.94
2019-03-17T10:55:51.733Z,17.35
2019-03-17T10:58:19.525Z,17.07
2019-03-17T11:00:47.430Z,17.11
2019-03-17T11:03:28.777Z,17.62
2019-03-17T11:05:56.566Z,17.24
2019-03-17T11:08:24.549Z,17.17
2019-03-17T11:10:52.368Z,17.10
2019-03-17T11:13:20.132Z,17.08
2019-03-17T11:15:48.113Z,16.98
2019-03-17T11:18:15.955Z,16.96
2019-03-17T11:20:43.984Z,17.04
2019-03-17T11:23:11.859Z,17.15
2019-03-17T11:25:39.802Z,17.02
2019-03-17T11:28:07.756Z,17.05
2019-03-17T11:30:36.585Z,17.06
2019-03-17T11:33:04.409Z,17.32
2019-03-17T11:35:36.612Z,17.23
2019-03-17T11:38:05.272Z,17.14
2019-03-17T11:40:33.914Z,17.10
2019-03-17T11:43:33.346Z,17.11
2019-03-17T11:45:54.916Z,17.16
2019-03-17T11:48:24.256Z,17.08
2019-03-17T11:50:52.191Z,17.27
2019-03-17T11:53:20.103Z,17.28
2019-03-17T11:55:48.253Z,17.25
2019-03-17T11:58:16.072Z,17.19
2019-03-17T12:00:43.934Z,17.31
2019-03-17T12:03:11.892Z,17.12
2019-03-17T12:05:39.766Z,17.42
2019-03-17T12:08:07.609Z,17.39
2019-03-17T12:10:35.890Z,17.26
2019-03-17T12:13:03.622Z,17.14
2019-03-17T12:15:31.553Z,17.15
2019-03-17T12:17:59.624Z,17.02
2019-03-17T12:20:27.500Z,17.13
2019-03-17T12:22:55.280Z,17.29
2019-03-17T12:25:23.091Z,17.36
2019-03-17T12:27:51.040Z,17.24
2019-03-17T12:30:19.822Z,17.73
2019-03-17T12:32:47.645Z,18.02
2019-03-17T12:35:15.466Z,17.51
2019-03-17T12:37:43.373Z,17.24
2019-03-17T12:40:11.196Z,17.21
2019-03-17T12:42:43.745Z,17.29
2019-03-17T12:45:09.916Z,17.38
2019-03-17T12:47:40.147Z,17.99
2019-03-17T12:50:08.261Z,18.13
2019-03-17T12:52:36.139Z,17.79
2019-03-17T12:55:04.038Z,17.48
2019-03-17T12:57:34.566Z,17.89
2019-03-17T13:00:03.670Z,17.32
2019-03-17T13:02:32.912Z,17.30
2019-03-17T13:05:20.281Z,17.54
2019-03-17T13:07:52.333Z,17.33
2019-03-17T13:10:20.111Z,17.38
2019-03-17T13:12:48.029Z,17.37
2019-03-17T13:15:17.190Z,17.44
2019-03-17T13:17:44.981Z,17.45
2019-03-17T13:20:14.201Z,17.42
2019-03-17T13:22:42.035Z,17.36
2019-03-17T13:25:09.841Z,17.52
2019-03-17T13:27:37.812Z,17.38
2019-03-17T13:30:06.334Z,17.39
2019-03-17T13:32:34.256Z,17.45
2019-03-17T13:35:02.068Z,18.90
2019-03-17T13:37:30.006Z,18.86
2019-03-17T13:39:57.842Z,18.43
2019-03-17T13:42:25.775Z,17.90
2019-03-17T13:44:53.659Z,18.34
2019-03-17T13:47:23.976Z,17.99
2019-03-17T13:49:51.849Z,18.61
2019-03-17T13:52:19.722Z,17.75
2019-03-17T13:54:47.587Z,17.52
2019-03-17T13:57:15.511Z,17.49
2019-03-17T13:59:43.324Z,17.55
2019-03-17T14:02:11.117Z,17.61
2019-03-17T14:04:38.947Z,17.61
2019-03-17T14:07:06.850Z,17.63
2019-03-17T14:09:35.601Z,17.60
2019-03-17T14:12:03.469Z,17.60
2019-03-17T14:14:31.347Z,17.62
2019-03-17T14:16:59.194Z,17.65
2019-03-17T14:19:27.140Z,17.79
2019-03-17T14:21:55.143Z,17.87
2019-03-17T14:24:23.120Z,18.01
2019-03-17T14:26:51.004Z,18.06
2019-03-17T14:29:18.906Z,17.88
2019-03-17T14:31:46.717Z,17.99
2019-03-17T14:34:14.875Z,18.05
2019-03-17T14:36:42.771Z,17.83
2019-03-17T14:39:10.633Z,18.03
2019-03-17T14:41:38.543Z,18.61
2019-03-17T14:44:06.536Z,19.43
2019-03-17T14:46:35.690Z,19.77
2019-03-17T14:49:03.939Z,18.82
2019-03-17T14:51:34.927Z,18.55
2019-03-17T14:54:02.812Z,17.81
2019-03-17T14:56:30.907Z,18.06
2019-03-17T14:58:58.788Z,17.94
2019-03-17T15:01:26.533Z,17.40
2019-03-17T15:03:54.429Z,17.63
2019-03-17T15:06:22.566Z,17.61
2019-03-17T15:08:50.439Z,17.67
2019-03-17T15:11:18.338Z,17.70
2019-03-17T15:13:46.095Z,17.69
2019-03-17T15:16:13.837Z,17.86
2019-03-17T15:18:41.605Z,17.85
2019-03-17T15:21:09.346Z,17.88
2019-03-17T15:23:37.131Z,17.67
2019-03-17T15:26:05.090Z,17.84
2019-03-17T15:28:32.857Z,17.84
2019-03-17T15:31:11.010Z,17.89
2019-03-17T15:33:30.181Z,18.04
2019-03-17T15:35:58.012Z,17.81
2019-03-17T15:38:25.813Z,17.77
2019-03-17T15:40:53.591Z,17.70
2019-03-17T15:43:21.426Z,17.76
2019-03-17T15:45:49.235Z,17.77
2019-03-17T15:48:16.998Z,17.72
2019-03-17T15:50:44.809Z,17.96
2019-03-17T15:53:12.608Z,17.84
2019-03-17T15:55:41.043Z,17.92
2019-03-17T15:58:08.793Z,17.87
2019-03-17T16:00:36.550Z,17.86
2019-03-17T16:03:04.293Z,17.66
2019-03-17T16:05:32.543Z,17.76
2019-03-17T16:08:00.412Z,18.11
2019-03-17T16:10:28.537Z,18.00
2019-03-17T16:12:56.339Z,17.82
2019-03-17T16:15:24.208Z,17.78
2019-03-17T16:17:52.124Z,17.88
2019-03-17T16:20:19.897Z,17.83
2019-03-17T16:22:47.637Z,17.90
2019-03-17T16:25:15.916Z,17.90
2019-03-17T16:27:43.810Z,17.96
2019-03-17T16:30:13.220Z,17.95
2019-03-17T16:32:41.263Z,17.93
2019-03-17T16:35:09.091Z,17.85
2019-03-17T16:37:36.839Z,18.00
2019-03-17T16:40:05.288Z,17.91
2019-03-17T16:42:33.068Z,17.94
2019-03-17T16:45:00.841Z,17.92
2019-03-17T16:47:28.590Z,17.90
2019-03-17T16:49:58.878Z,17.95
2019-03-17T16:52:25.955Z,17.93
2019-03-17T16:54:53.753Z,18.00
2019-03-17T16:57:21.678Z,18.00
2019-03-17T16:59:49.592Z,17.96
2019-03-17T17:02:17.353Z,17.92
2019-03-17T17:04:45.280Z,18.19
2019-03-17T17:07:13.021Z,18.03
2019-03-17T17:09:41.752Z,17.92
2019-03-17T17:12:09.505Z,17.80
2019-03-17T17:14:37.281Z,18.02
2019-03-17T17:17:05.033Z,17.85
2019-03-17T17:19:32.811Z,17.79
2019-03-17T17:22:00.560Z,17.78
2019-03-17T17:24:28.320Z,17.77
2019-03-17T17:26:56.097Z,17.86
2019-03-17T17:29:23.816Z,17.76
2019-03-17T17:31:51.580Z,17.75
2019-03-17T17:34:19.321Z,17.76
2019-03-17T17:36:47.048Z,17.73
2019-03-17T17:39:14.996Z,17.67
2019-03-17T17:41:42.756Z,17.66
2019-03-17T17:44:10.575Z,17.60
2019-03-17T17:46:38.510Z,17.67
2019-03-17T17:49:06.278Z,17.59
2019-03-17T17:51:34.255Z,17.44
2019-03-17T17:54:02.012Z,17.45
2019-03-17T17:56:29.761Z,17.41
2019-03-17T17:58:57.504Z,17.49
2019-03-17T18:01:25.256Z,17.42
2019-03-17T18:03:53.043Z,17.34
2019-03-17T18:06:21.041Z,17.32
2019-03-17T18:08:49.013Z,17.39
2019-03-17T18:11:16.917Z,17.38
2019-03-17T18:13:45.145Z,17.44
2019-03-17T18:16:15.680Z,17.47
2019-03-17T18:18:43.461Z,17.29
2019-03-17T18:21:11.195Z,17.66
2019-03-17T18:23:38.967Z,17.39
2019-03-17T18:26:06.696Z,17.33
2019-03-17T18:28:34.455Z,17.44
2019-03-17T18:31:02.246Z,17.39
2019-03-17T18:33:30.012Z,17.28
2019-03-17T18:35:58.848Z,17.38
2019-03-17T18:38:26.868Z,17.21
2019-03-17T18:40:54.655Z,17.26
2019-03-17T18:43:22.412Z,17.23
2019-03-17T18:45:50.160Z,18.07
2019-03-17T18:48:17.928Z,17.48
2019-03-17T18:50:45.673Z,17.29
2019-03-17T18:53:13.456Z,17.32
2019-03-17T18:55:41.242Z,17.23
2019-03-17T18:58:09.097Z,17.27
2019-03-17T19:00:37.185Z,17.20
2019-03-17T19:03:04.942Z,17.25
2019-03-17T19:05:32.711Z,17.30
2019-03-17T19:08:00.466Z,17.27
2019-03-17T19:10:28.609Z,17.38
2019-03-17T19:12:58.999Z,17.33
2019-03-17T19:15:26.880Z,17.28
2019-03-17T19:17:54.736Z,17.25
2019-03-17T19:20:22.605Z,17.28
2019-03-17T19:22:50.408Z,17.33
2019-03-17T19:25:18.165Z,17.28
2019-03-17T19:27:45.898Z,17.27
2019-03-17T19:30:14.502Z,17.34
2019-03-17T19:32:42.311Z,17.27
2019-03-17T19:35:10.254Z,17.21
2019-03-17T19:37:38.052Z,17.35
2019-03-17T19:40:06.073Z,17.25
2019-03-17T19:42:33.828Z,17.17
2019-03-17T19:45:01.552Z,17.28
2019-03-17T19:47:29.756Z,17.20
2019-03-17T19:49:57.587Z,17.16
2019-03-17T19:52:25.332Z,17.29
2019-03-17T19:54:53.136Z,17.30
2019-03-17T19:57:21.332Z,17.24
2019-03-17T19:59:49.211Z,17.21
2019-03-17T20:02:16.982Z,17.23
2019-03-17T20:04:44.859Z,17.45
2019-03-17T20:07:12.640Z,17.29
2019-03-17T20:09:40.373Z,17.24
2019-03-17T20:12:08.209Z,17.07
2019-03-17T20:14:35.959Z,20.16
2019-03-17T20:17:03.928Z,19.62
2019-03-17T20:19:31.757Z,19.21
2019-03-17T20:21:59.551Z,19.20
2019-03-17T20:24:27.294Z,18.46
2019-03-17T20:26:55.038Z,18.98
2019-03-17T20:29:22.785Z,19.08
2019-03-17T20:31:50.621Z,19.02
2019-03-17T20:34:18.552Z,18.83
2019-03-17T20:36:46.287Z,18.91
2019-03-17T20:39:14.078Z,18.78
2019-03-17T20:41:41.925Z,18.74
2019-03-17T20:44:09.774Z,18.85
2019-03-17T20:46:37.606Z,18.79
2019-03-17T20:49:05.749Z,18.91
2019-03-17T20:51:33.776Z,18.86
2019-03-17T20:54:01.656Z,18.45
2019-03-17T20:56:30.040Z,18.44
2019-03-17T20:58:57.784Z,18.27
2019-03-17T21:01:25.555Z,18.73
2019-03-17T21:03:53.318Z,18.72
2019-03-17T21:06:21.173Z,18.70
2019-03-17T21:08:49.000Z,18.44
2019-03-17T21:11:16.793Z,18.10
2019-03-17T21:13:47.110Z,18.05
2019-03-17T21:16:14.569Z,17.84
2019-03-17T21:18:42.323Z,17.89
2019-03-17T21:21:10.164Z,17.83
2019-03-17T21:23:37.976Z,17.74
2019-03-17T21:26:05.738Z,17.86
2019-03-17T21:28:33.512Z,17.72
2019-03-17T21:31:01.376Z,17.66
2019-03-17T21:33:29.302Z,17.69
2019-03-17T21:35:57.069Z,17.61
2019-03-17T21:38:24.867Z,17.59
2019-03-17T21:41:06.159Z,17.40
2019-03-17T21:43:22.649Z,17.48
2019-03-17T21:45:50.625Z,17.47
2019-03-17T21:48:18.506Z,17.19
2019-03-17T21:50:46.371Z,17.50
2019-03-17T21:53:14.377Z,17.42
2019-03-17T21:55:42.126Z,17.00
2019-03-17T21:58:09.869Z,17.40
2019-03-17T22:00:37.747Z,17.40
2019-03-17T22:03:05.510Z,17.41
2019-03-17T22:05:33.325Z,17.10
2019-03-17T22:08:01.174Z,17.08
2019-03-17T22:10:28.907Z,17.21
2019-03-17T22:12:56.692Z,17.04
2019-03-17T22:15:24.589Z,17.26
2019-03-17T22:17:52.535Z,17.07
2019-03-17T22:20:20.873Z,17.47
2019-03-17T22:22:48.774Z,17.19
2019-03-17T22:25:16.629Z,17.19
2019-03-17T22:27:45.513Z,16.99
2019-03-17T22:30:13.443Z,17.04
2019-03-17T22:32:41.181Z,17.19
2019-03-17T22:35:09.036Z,17.22
2019-03-17T22:37:36.931Z,17.08
2019-03-17T22:40:05.613Z,17.45
2019-03-17T22:42:33.409Z,17.02
2019-03-17T22:45:01.360Z,17.14
2019-03-17T22:47:29.135Z,17.19
2019-03-17T22:49:56.978Z,17.06
2019-03-17T22:52:24.863Z,16.68
2019-03-17T22:54:52.738Z,16.85
2019-03-17T22:57:20.548Z,16.68
2019-03-17T22:59:48.309Z,15.94
2019-03-17T23:02:16.048Z,14.71
2019-03-17T23:04:44.028Z,16.81
2019-03-17T23:07:12.732Z,17.11
2019-03-17T23:09:55.579Z,16.74
2019-03-17T23:12:26.274Z,15.88
2019-03-17T23:14:54.097Z,16.29
2019-03-17T23:17:21.885Z,16.69
2019-03-17T23:19:49.652Z,16.69
2019-03-17T23:22:17.381Z,16.79
2019-03-17T23:24:45.141Z,16.77
2019-03-17T23:27:12.953Z,16.32
2019-03-17T23:29:40.688Z,16.60
2019-03-17T23:32:08.435Z,16.55
2019-03-17T23:34:36.164Z,16.53
2019-03-17T23:37:03.928Z,16.40
2019-03-17T23:39:31.665Z,16.54
2019-03-17T23:41:59.431Z,16.24
2019-03-17T23:44:27.232Z,16.51
2019-03-17T23:46:54.984Z,16.53
2019-03-17T23:49:22.739Z,16.40
2019-03-17T23:51:50.785Z,16.57
2019-03-17T23:54:18.544Z,16.46
2019-03-17T23:56:46.296Z,16.44
2019-03-17T23:59:14.066Z,16.36
